createdAt,value
2017-02-16T00:00:07.649Z,74698
2017-02-16T00:00:17.475Z,74702
2017-02-16T00:00:28.091Z,74698
2017-02-16T00:00:38.705Z,74700
2017-02-16T00:00:48.891Z,74699
2017-02-16T00:00:59.427Z,74699
2017-02-16T00:01:09.977Z,74700
2017-02-16T00:01:20.171Z,74697
2017-02-16T00:01:30.747Z,74696
2017-02-16T00:01:41.379Z,74697
2017-02-16T00:01:51.974Z,74696
2017-02-16T00:02:02.535Z,74698
2017-02-16T00:02:13.138Z,74696
2017-02-16T00:02:23.721Z,74699
2017-02-16T00:02:34.312Z,74699
2017-02-16T00:02:44.901Z,74698
2017-02-16T00:02:55.091Z,74697
2017-02-16T00:03:05.695Z,74698
2017-02-16T00:03:15.880Z,74694
2017-02-16T00:03:26.453Z,74696
2017-02-16T00:03:37.055Z,74693
2017-02-16T00:03:47.656Z,74696
2017-02-16T00:03:58.271Z,74695
2017-02-16T00:04:08.494Z,74697
2017-02-16T00:04:18.744Z,74700
2017-02-16T00:04:29.298Z,74696
2017-02-16T00:04:39.891Z,74697
2017-02-16T00:04:50.129Z,74696
2017-02-16T00:05:00.714Z,74697
2017-02-16T00:05:10.918Z,74698
2017-02-16T00:05:21.102Z,74699
2017-02-16T00:05:31.645Z,74695
2017-02-16T00:05:42.224Z,74695
2017-02-16T00:05:52.783Z,74696
2017-02-16T00:06:03.362Z,74696
2017-02-16T00:06:13.984Z,74698
2017-02-16T00:06:24.592Z,74698
2017-02-16T00:06:35.212Z,74695
2017-02-16T00:06:45.807Z,74696
2017-02-16T00:06:56.401Z,74699
2017-02-16T00:07:06.616Z,74696
2017-02-16T00:07:17.175Z,74692
2017-02-16T00:07:27.747Z,74698
2017-02-16T00:07:38.343Z,74693
2017-02-16T00:07:48.534Z,74694
2017-02-16T00:07:59.090Z,74696
2017-02-16T00:08:09.658Z,74697
2017-02-16T00:08:19.863Z,74693
2017-02-16T00:08:30.448Z,74695
2017-02-16T00:08:41.048Z,74698
2017-02-16T00:08:51.621Z,74694
2017-02-16T00:09:02.153Z,74699
2017-02-16T00:09:12.765Z,74696
2017-02-16T00:09:22.632Z,74698
2017-02-16T00:09:33.184Z,74696
2017-02-16T00:09:43.745Z,74698
2017-02-16T00:09:54.307Z,74698
2017-02-16T00:10:04.871Z,74699
2017-02-16T00:10:15.122Z,74697
2017-02-16T00:10:25.350Z,74697
2017-02-16T00:10:35.991Z,74698
2017-02-16T00:10:46.594Z,74696
2017-02-16T00:10:57.174Z,74691
2017-02-16T00:11:07.694Z,74698
2017-02-16T00:11:17.941Z,74699
2017-02-16T00:11:28.539Z,74695
2017-02-16T00:11:39.132Z,74698
2017-02-16T00:11:49.730Z,74694
2017-02-16T00:11:59.944Z,74696
2017-02-16T00:12:10.166Z,74703
2017-02-16T00:12:19.991Z,74696
2017-02-16T00:12:29.801Z,74701
2017-02-16T00:12:40.376Z,74697
2017-02-16T00:12:50.963Z,74699
2017-02-16T00:13:01.518Z,74698
2017-02-16T00:13:11.736Z,74699
2017-02-16T00:13:21.965Z,74697
2017-02-16T00:13:32.183Z,74695
2017-02-16T00:13:42.787Z,74698
2017-02-16T00:13:53.381Z,74699
2017-02-16T00:14:03.981Z,74696
2017-02-16T00:14:14.230Z,74698
2017-02-16T00:14:24.439Z,74698
2017-02-16T00:14:35.026Z,74697
2017-02-16T00:14:45.611Z,74700
2017-02-16T00:14:56.214Z,74700
2017-02-16T00:15:06.778Z,74689
2017-02-16T00:15:16.973Z,74696
2017-02-16T00:15:27.174Z,74698
2017-02-16T00:15:37.785Z,74695
2017-02-16T00:15:48.361Z,74699
2017-02-16T00:15:58.962Z,74696
2017-02-16T00:16:09.570Z,74693
2017-02-16T00:16:19.779Z,74696
2017-02-16T00:16:30.362Z,74696
2017-02-16T00:16:40.954Z,74697
2017-02-16T00:16:51.564Z,74694
2017-02-16T00:17:02.141Z,74698
2017-02-16T00:17:12.372Z,74694
2017-02-16T00:17:22.936Z,74694
2017-02-16T00:17:33.515Z,74694
2017-02-16T00:17:44.063Z,74695
2017-02-16T00:17:54.648Z,74691
2017-02-16T00:18:05.244Z,74692
2017-02-16T00:18:15.453Z,74692
2017-02-16T00:18:25.678Z,74694
2017-02-16T00:18:36.269Z,74690
2017-02-16T00:18:46.872Z,74696
2017-02-16T00:18:57.491Z,74694
2017-02-16T00:19:08.099Z,74692
2017-02-16T00:19:18.739Z,74693
2017-02-16T00:19:28.937Z,74692
2017-02-16T00:19:39.508Z,74692
2017-02-16T00:19:50.108Z,74695
2017-02-16T00:20:00.390Z,74694
2017-02-16T00:20:09.869Z,74691
2017-02-16T00:20:20.407Z,74692
2017-02-16T00:20:30.988Z,74692
2017-02-16T00:20:41.588Z,74694
2017-02-16T00:20:52.205Z,74691
2017-02-16T00:21:02.801Z,74691
2017-02-16T00:21:13.372Z,74690
2017-02-16T00:21:23.603Z,74693
2017-02-16T00:21:34.193Z,74694
2017-02-16T00:21:44.772Z,74695
2017-02-16T00:21:55.395Z,74692
2017-02-16T00:22:05.612Z,74694
2017-02-16T00:22:16.207Z,74691
2017-02-16T00:22:26.418Z,74696
2017-02-16T00:22:37.034Z,74691
2017-02-16T00:22:47.612Z,74692
2017-02-16T00:22:58.181Z,74696
2017-02-16T00:23:08.379Z,74693
2017-02-16T00:23:18.985Z,74694
2017-02-16T00:23:29.581Z,74690
2017-02-16T00:23:40.183Z,74694
2017-02-16T00:23:50.753Z,74693
2017-02-16T00:24:01.332Z,74689
2017-02-16T00:24:11.975Z,74691
2017-02-16T00:24:22.548Z,74687
2017-02-16T00:24:33.132Z,74689
2017-02-16T00:24:43.678Z,74691
2017-02-16T00:24:54.269Z,74691
2017-02-16T00:25:04.847Z,74689
2017-02-16T00:25:15.046Z,74692
2017-02-16T00:25:25.602Z,74689
2017-02-16T00:25:36.178Z,74696
2017-02-16T00:25:46.762Z,74690
2017-02-16T00:25:57.323Z,74692
2017-02-16T00:26:07.892Z,74693
2017-02-16T00:26:17.752Z,74691
2017-02-16T00:26:28.340Z,74688
2017-02-16T00:26:38.908Z,74690
2017-02-16T00:26:49.490Z,74689
2017-02-16T00:26:59.741Z,74691
2017-02-16T00:27:09.980Z,74688
2017-02-16T00:27:20.557Z,74687
2017-02-16T00:27:31.162Z,74691
2017-02-16T00:27:41.783Z,74689
2017-02-16T00:27:52.346Z,74688
2017-02-16T00:28:02.570Z,74692
2017-02-16T00:28:12.421Z,74689
2017-02-16T00:28:22.667Z,74689
2017-02-16T00:28:33.300Z,74688
2017-02-16T00:28:43.890Z,74687
2017-02-16T00:28:54.522Z,74687
2017-02-16T00:29:05.086Z,74691
2017-02-16T00:29:14.903Z,74690
2017-02-16T00:29:25.104Z,74688
2017-02-16T00:29:35.655Z,74686
2017-02-16T00:29:46.266Z,74689
2017-02-16T00:29:56.828Z,74685
2017-02-16T00:30:07.069Z,74686
2017-02-16T00:30:17.297Z,74688
2017-02-16T00:30:27.888Z,74688
2017-02-16T00:30:38.076Z,74688
2017-02-16T00:30:48.670Z,74687
2017-02-16T00:30:59.269Z,74686
2017-02-16T00:31:09.842Z,74689
2017-02-16T00:31:20.417Z,74690
2017-02-16T00:31:30.993Z,74690
2017-02-16T00:31:41.555Z,74688
2017-02-16T00:31:52.146Z,74685
2017-02-16T00:32:02.387Z,74686
2017-02-16T00:32:13.013Z,74688
2017-02-16T00:32:23.606Z,74689
2017-02-16T00:32:34.196Z,74684
2017-02-16T00:32:44.745Z,74687
2017-02-16T00:32:55.321Z,74688
2017-02-16T00:33:05.885Z,74689
2017-02-16T00:33:16.082Z,74689
2017-02-16T00:33:26.646Z,74686
2017-02-16T00:33:37.232Z,74689
2017-02-16T00:33:47.471Z,74688
2017-02-16T00:33:58.067Z,74688
2017-02-16T00:34:08.665Z,74688
2017-02-16T00:34:19.254Z,74687
2017-02-16T00:34:29.869Z,74690
2017-02-16T00:34:40.475Z,74690
2017-02-16T00:34:51.097Z,74685
2017-02-16T00:35:01.689Z,74688
2017-02-16T00:35:11.943Z,74688
2017-02-16T00:35:22.113Z,74684
2017-02-16T00:35:32.653Z,74686
2017-02-16T00:35:43.266Z,74691
2017-02-16T00:35:53.854Z,74686
2017-02-16T00:36:04.405Z,74685
2017-02-16T00:36:15.016Z,74686
2017-02-16T00:36:25.636Z,74684
2017-02-16T00:36:36.175Z,74686
2017-02-16T00:36:46.383Z,74687
2017-02-16T00:36:56.984Z,74687
2017-02-16T00:37:07.595Z,74684
2017-02-16T00:37:17.799Z,74685
2017-02-16T00:37:28.428Z,74685
2017-02-16T00:37:39.038Z,74685
2017-02-16T00:37:48.908Z,74685
2017-02-16T00:37:59.479Z,74686
2017-02-16T00:38:10.019Z,74688
2017-02-16T00:38:20.250Z,74682
2017-02-16T00:38:30.847Z,74681
2017-02-16T00:38:41.055Z,74683
2017-02-16T00:38:51.642Z,74684
2017-02-16T00:39:02.209Z,74682
2017-02-16T00:39:12.408Z,74683
2017-02-16T00:39:22.632Z,74683
2017-02-16T00:39:33.169Z,74683
2017-02-16T00:39:43.708Z,74682
2017-02-16T00:39:54.298Z,74682
2017-02-16T00:40:04.881Z,74684
2017-02-16T00:40:15.526Z,74682
2017-02-16T00:40:25.723Z,74684
2017-02-16T00:40:36.307Z,74682
2017-02-16T00:40:46.869Z,74685
2017-02-16T00:40:57.450Z,74685
2017-02-16T00:41:08.016Z,74686
2017-02-16T00:41:18.613Z,74684
2017-02-16T00:41:29.186Z,74680
2017-02-16T00:41:39.773Z,74680
2017-02-16T00:41:50.369Z,74682
2017-02-16T00:42:00.589Z,74678
2017-02-16T00:42:10.795Z,74682
2017-02-16T00:42:21.398Z,74684
2017-02-16T00:42:31.970Z,74681
2017-02-16T00:42:42.558Z,74682
2017-02-16T00:42:53.188Z,74681
2017-02-16T00:43:03.801Z,74681
2017-02-16T00:43:14.015Z,74681
2017-02-16T00:43:24.626Z,74680
2017-02-16T00:43:35.203Z,74680
2017-02-16T00:43:45.798Z,74684
2017-02-16T00:43:56.054Z,74682
2017-02-16T00:44:06.249Z,74681
2017-02-16T00:44:16.820Z,74681
2017-02-16T00:44:27.483Z,74678
2017-02-16T00:44:38.044Z,74677
2017-02-16T00:44:48.598Z,74681
2017-02-16T00:44:58.805Z,74681
2017-02-16T00:45:09.334Z,74677
2017-02-16T00:45:19.935Z,74679
2017-02-16T00:45:30.554Z,74683
2017-02-16T00:45:41.158Z,74678
2017-02-16T00:45:51.715Z,74681
2017-02-16T00:46:02.339Z,74678
2017-02-16T00:46:12.547Z,74677
2017-02-16T00:46:23.108Z,74682
2017-02-16T00:46:33.720Z,74682
2017-02-16T00:46:44.293Z,74679
2017-02-16T00:46:54.522Z,74679
2017-02-16T00:47:05.105Z,74680
2017-02-16T00:47:15.303Z,74681
2017-02-16T00:47:25.879Z,74679
2017-02-16T00:47:36.457Z,74679
2017-02-16T00:47:47.038Z,74684
2017-02-16T00:47:57.648Z,74680
2017-02-16T00:48:07.865Z,74681
2017-02-16T00:48:17.717Z,74681
2017-02-16T00:48:27.181Z,74683
2017-02-16T00:48:37.785Z,74683
2017-02-16T00:48:48.368Z,74682
2017-02-16T00:48:58.571Z,74683
2017-02-16T00:49:09.136Z,74682
2017-02-16T00:49:19.376Z,74681
2017-02-16T00:49:29.954Z,74682
2017-02-16T00:49:40.496Z,74679
2017-02-16T00:49:51.088Z,74680
2017-02-16T00:50:01.637Z,74681
2017-02-16T00:50:12.233Z,74683
2017-02-16T00:50:22.532Z,74680
2017-02-16T00:50:33.121Z,74680
2017-02-16T00:50:43.681Z,74682
2017-02-16T00:50:54.251Z,74683
2017-02-16T00:51:04.814Z,74681
2017-02-16T00:51:14.996Z,74681
2017-02-16T00:51:25.194Z,74680
2017-02-16T00:51:35.785Z,74679
2017-02-16T00:51:46.039Z,74681
2017-02-16T00:51:56.580Z,74682
2017-02-16T00:52:06.758Z,74679
2017-02-16T00:52:17.007Z,74678
2017-02-16T00:52:27.205Z,74680
2017-02-16T00:52:37.833Z,74684
2017-02-16T00:52:48.414Z,74682
2017-02-16T00:52:58.327Z,74685
2017-02-16T00:53:08.907Z,74684
2017-02-16T00:53:19.511Z,74684
2017-02-16T00:53:30.116Z,74680
2017-02-16T00:53:40.679Z,74686
2017-02-16T00:53:51.269Z,74682
2017-02-16T00:54:01.847Z,74681
2017-02-16T00:54:12.452Z,74684
2017-02-16T00:54:22.706Z,74681
2017-02-16T00:54:32.897Z,74685
2017-02-16T00:54:43.488Z,74683
2017-02-16T00:54:54.067Z,74685
2017-02-16T00:55:04.260Z,74686
2017-02-16T00:55:14.109Z,74682
2017-02-16T00:55:24.693Z,74682
2017-02-16T00:55:35.290Z,74683
2017-02-16T00:55:45.885Z,74682
2017-02-16T00:55:56.132Z,74685
2017-02-16T00:56:06.713Z,74684
2017-02-16T00:56:17.272Z,74689
2017-02-16T00:56:27.504Z,74684
2017-02-16T00:56:38.086Z,74682
2017-02-16T00:56:48.709Z,74682
2017-02-16T00:56:59.313Z,74683
2017-02-16T00:57:09.877Z,74682
2017-02-16T00:57:20.459Z,74679
2017-02-16T00:57:30.698Z,74676
2017-02-16T00:57:41.305Z,74679
2017-02-16T00:57:51.920Z,74682
2017-02-16T00:58:02.515Z,74684
2017-02-16T00:58:13.130Z,74680
2017-02-16T00:58:23.690Z,74683
2017-02-16T00:58:34.217Z,74683
2017-02-16T00:58:44.789Z,74681
2017-02-16T00:58:55.354Z,74684
2017-02-16T00:59:05.581Z,74685
2017-02-16T00:59:16.161Z,74687
2017-02-16T00:59:26.793Z,74690
2017-02-16T00:59:37.413Z,74683
2017-02-16T00:59:47.956Z,74682
2017-02-16T00:59:58.506Z,74683
2017-02-16T01:00:09.126Z,74680
2017-02-16T01:00:19.715Z,74685
2017-02-16T01:00:30.298Z,74686
2017-02-16T01:00:40.892Z,74680
2017-02-16T01:00:51.431Z,74685
2017-02-16T01:01:01.984Z,74689
2017-02-16T01:01:12.532Z,74688
2017-02-16T01:01:22.751Z,74686
2017-02-16T01:01:33.342Z,74687
2017-02-16T01:01:43.952Z,74684
2017-02-16T01:01:54.559Z,74686
2017-02-16T01:02:04.750Z,74685
2017-02-16T01:02:14.242Z,74685
2017-02-16T01:02:24.448Z,74686
2017-02-16T01:02:35.042Z,74688
2017-02-16T01:02:45.613Z,74687
2017-02-16T01:02:56.167Z,74686
2017-02-16T01:03:06.756Z,74689
2017-02-16T01:03:17.297Z,74688
2017-02-16T01:03:27.902Z,74686
2017-02-16T01:03:38.448Z,74686
2017-02-16T01:03:49.109Z,74686
2017-02-16T01:03:59.670Z,74686
2017-02-16T01:04:10.253Z,74687
2017-02-16T01:04:20.472Z,74686
2017-02-16T01:04:31.044Z,74683
2017-02-16T01:04:41.626Z,74683
2017-02-16T01:04:52.218Z,74687
2017-02-16T01:05:02.739Z,74687
2017-02-16T01:05:12.959Z,74686
2017-02-16T01:05:23.132Z,74686
2017-02-16T01:05:33.343Z,74690
2017-02-16T01:05:43.968Z,74688
2017-02-16T01:05:54.535Z,74684
2017-02-16T01:06:05.140Z,74684
2017-02-16T01:06:14.591Z,74685
2017-02-16T01:06:25.189Z,74684
2017-02-16T01:06:35.755Z,74688
2017-02-16T01:06:46.336Z,74685
2017-02-16T01:06:56.962Z,74687
2017-02-16T01:07:07.613Z,74685
2017-02-16T01:07:17.824Z,74687
2017-02-16T01:07:28.428Z,74685
2017-02-16T01:07:39.016Z,74686
2017-02-16T01:07:49.637Z,74689
2017-02-16T01:08:00.277Z,74688
2017-02-16T01:08:10.885Z,74688
2017-02-16T01:08:21.407Z,74684
2017-02-16T01:08:31.996Z,74684
2017-02-16T01:08:42.596Z,74684
2017-02-16T01:08:53.141Z,74684
2017-02-16T01:09:03.728Z,74687
2017-02-16T01:09:13.944Z,74687
2017-02-16T01:09:23.793Z,74684
2017-02-16T01:09:34.333Z,74684
2017-02-16T01:09:44.917Z,74689
2017-02-16T01:09:55.494Z,74685
2017-02-16T01:10:05.689Z,74683
2017-02-16T01:10:16.263Z,74688
2017-02-16T01:10:26.830Z,74685
2017-02-16T01:10:37.423Z,74683
2017-02-16T01:10:48.019Z,74684
2017-02-16T01:10:58.638Z,74684
2017-02-16T01:11:09.236Z,74686
2017-02-16T01:11:19.466Z,74688
2017-02-16T01:11:29.694Z,74687
2017-02-16T01:11:39.927Z,74686
2017-02-16T01:11:50.519Z,74687
2017-02-16T01:12:01.096Z,74684
2017-02-16T01:12:11.699Z,74685
2017-02-16T01:12:22.284Z,74686
2017-02-16T01:12:32.908Z,74683
2017-02-16T01:12:43.522Z,74689
2017-02-16T01:12:54.135Z,74688
2017-02-16T01:13:04.741Z,74685
2017-02-16T01:13:14.950Z,74686
2017-02-16T01:13:25.533Z,74687
2017-02-16T01:13:36.120Z,74688
2017-02-16T01:13:46.683Z,74686
2017-02-16T01:13:57.297Z,74688
2017-02-16T01:14:07.541Z,74690
2017-02-16T01:14:18.110Z,74688
2017-02-16T01:14:28.665Z,74687
2017-02-16T01:14:39.240Z,74685
2017-02-16T01:14:49.798Z,74685
2017-02-16T01:15:00.410Z,74689
2017-02-16T01:15:11.001Z,74686
2017-02-16T01:15:21.565Z,74682
2017-02-16T01:15:32.133Z,74684
2017-02-16T01:15:42.717Z,74685
2017-02-16T01:15:53.322Z,74684
2017-02-16T01:16:03.930Z,74687
2017-02-16T01:16:14.512Z,74685
2017-02-16T01:16:25.144Z,74685
2017-02-16T01:16:35.771Z,74686
2017-02-16T01:16:46.371Z,74683
2017-02-16T01:16:56.949Z,74683
2017-02-16T01:17:07.525Z,74687
2017-02-16T01:17:18.128Z,74685
2017-02-16T01:17:28.711Z,74681
2017-02-16T01:17:39.309Z,74680
2017-02-16T01:17:49.837Z,74684
2017-02-16T01:18:00.409Z,74685
2017-02-16T01:18:10.621Z,74688
2017-02-16T01:18:21.174Z,74686
2017-02-16T01:18:31.764Z,74683
2017-02-16T01:18:42.323Z,74683
2017-02-16T01:18:52.878Z,74685
2017-02-16T01:19:03.494Z,74684
2017-02-16T01:19:14.083Z,74685
2017-02-16T01:19:24.268Z,74685
2017-02-16T01:19:34.877Z,74684
2017-02-16T01:19:45.474Z,74684
2017-02-16T01:19:56.095Z,74683
2017-02-16T01:20:06.690Z,74683
2017-02-16T01:20:17.301Z,74685
2017-02-16T01:20:27.152Z,74684
2017-02-16T01:20:37.394Z,74688
2017-02-16T01:20:47.963Z,74684
2017-02-16T01:20:58.549Z,74686
2017-02-16T01:21:09.206Z,74684
2017-02-16T01:21:19.438Z,74681
2017-02-16T01:21:29.666Z,74684
2017-02-16T01:21:40.210Z,74681
2017-02-16T01:21:50.782Z,74685
2017-02-16T01:22:01.333Z,74684
2017-02-16T01:22:11.905Z,74684
2017-02-16T01:22:22.488Z,74685
2017-02-16T01:22:32.688Z,74687
2017-02-16T01:22:43.301Z,74681
2017-02-16T01:22:53.905Z,74681
2017-02-16T01:23:04.531Z,74685
2017-02-16T01:23:15.102Z,74681
2017-02-16T01:23:25.671Z,74684
2017-02-16T01:23:36.273Z,74681
2017-02-16T01:23:46.866Z,74679
2017-02-16T01:23:57.435Z,74684
2017-02-16T01:24:07.990Z,74681
2017-02-16T01:24:18.626Z,74679
2017-02-16T01:24:29.173Z,74683
2017-02-16T01:24:39.746Z,74682
2017-02-16T01:24:49.937Z,74682
2017-02-16T01:25:00.529Z,74686
2017-02-16T01:25:10.764Z,74684
2017-02-16T01:25:21.044Z,74680
2017-02-16T01:25:31.651Z,74683
2017-02-16T01:25:42.239Z,74680
2017-02-16T01:25:52.820Z,74678
2017-02-16T01:26:03.093Z,74682
2017-02-16T01:26:13.699Z,74686
2017-02-16T01:26:23.908Z,74683
2017-02-16T01:26:34.480Z,74682
2017-02-16T01:26:44.695Z,74679
2017-02-16T01:26:55.264Z,74678
2017-02-16T01:27:05.875Z,74679
2017-02-16T01:27:16.079Z,74679
2017-02-16T01:27:26.646Z,74679
2017-02-16T01:27:37.201Z,74680
2017-02-16T01:27:47.795Z,74682
2017-02-16T01:27:58.001Z,74680
2017-02-16T01:28:08.276Z,74682
2017-02-16T01:28:18.838Z,74677
2017-02-16T01:28:29.030Z,74678
2017-02-16T01:28:39.599Z,74680
2017-02-16T01:28:50.128Z,74677
2017-02-16T01:29:00.722Z,74679
2017-02-16T01:29:11.258Z,74679
2017-02-16T01:29:21.868Z,74681
2017-02-16T01:29:32.476Z,74677
2017-02-16T01:29:43.074Z,74679
2017-02-16T01:29:53.637Z,74679
2017-02-16T01:30:03.804Z,74678
2017-02-16T01:30:13.285Z,74684
2017-02-16T01:30:23.826Z,74678
2017-02-16T01:30:34.404Z,74679
2017-02-16T01:30:45.005Z,74685
2017-02-16T01:30:55.589Z,74678
2017-02-16T01:31:06.168Z,74675
2017-02-16T01:31:16.777Z,74679
2017-02-16T01:31:27.323Z,74675
2017-02-16T01:31:37.546Z,74679
2017-02-16T01:31:48.126Z,74678
2017-02-16T01:31:58.704Z,74678
2017-02-16T01:32:09.260Z,74679
2017-02-16T01:32:19.870Z,74677
2017-02-16T01:32:29.736Z,74679
2017-02-16T01:32:39.935Z,74679
2017-02-16T01:32:50.526Z,74676
2017-02-16T01:33:01.121Z,74677
2017-02-16T01:33:11.716Z,74679
2017-02-16T01:33:21.912Z,74674
2017-02-16T01:33:32.124Z,74676
2017-02-16T01:33:42.719Z,74680
2017-02-16T01:33:52.949Z,74677
2017-02-16T01:34:03.527Z,74679
2017-02-16T01:34:13.775Z,74677
2017-02-16T01:34:24.374Z,74677
2017-02-16T01:34:34.976Z,74675
2017-02-16T01:34:45.552Z,74674
2017-02-16T01:34:56.151Z,74674
2017-02-16T01:35:06.748Z,74677
2017-02-16T01:35:17.359Z,74677
2017-02-16T01:35:27.953Z,74675
2017-02-16T01:35:38.521Z,74675
2017-02-16T01:35:49.083Z,74675
2017-02-16T01:35:59.650Z,74676
2017-02-16T01:36:10.240Z,74678
2017-02-16T01:36:20.820Z,74676
2017-02-16T01:36:31.363Z,74674
2017-02-16T01:36:41.550Z,74676
2017-02-16T01:36:52.139Z,74679
2017-02-16T01:37:02.702Z,74676
2017-02-16T01:37:12.971Z,74676
2017-02-16T01:37:23.549Z,74675
2017-02-16T01:37:34.159Z,74673
2017-02-16T01:37:44.708Z,74672
2017-02-16T01:37:55.307Z,74675
2017-02-16T01:38:05.862Z,74675
2017-02-16T01:38:16.055Z,74676
2017-02-16T01:38:26.652Z,74674
2017-02-16T01:38:37.198Z,74677
2017-02-16T01:38:47.758Z,74675
2017-02-16T01:38:57.947Z,74675
2017-02-16T01:39:08.569Z,74675
2017-02-16T01:39:18.812Z,74677
2017-02-16T01:39:29.439Z,74673
2017-02-16T01:39:39.601Z,74674
2017-02-16T01:39:50.141Z,74674
2017-02-16T01:40:00.745Z,74674
2017-02-16T01:40:10.622Z,74672
2017-02-16T01:40:21.222Z,74674
2017-02-16T01:40:31.822Z,74674
2017-02-16T01:40:42.018Z,74676
2017-02-16T01:40:52.668Z,74670
2017-02-16T01:41:03.277Z,74675
2017-02-16T01:41:13.867Z,74676
2017-02-16T01:41:24.482Z,74674
2017-02-16T01:41:34.686Z,74674
2017-02-16T01:41:45.238Z,74675
2017-02-16T01:41:55.455Z,74672
2017-02-16T01:42:06.060Z,74671
2017-02-16T01:42:16.312Z,74675
2017-02-16T01:42:26.930Z,74672
2017-02-16T01:42:37.536Z,74671
2017-02-16T01:42:47.747Z,74673
2017-02-16T01:42:58.377Z,74671
2017-02-16T01:43:09.000Z,74673
2017-02-16T01:43:19.564Z,74672
2017-02-16T01:43:29.809Z,74673
2017-02-16T01:43:40.386Z,74671
2017-02-16T01:43:50.981Z,74675
2017-02-16T01:44:01.584Z,74674
2017-02-16T01:44:12.146Z,74671
2017-02-16T01:44:22.386Z,74672
2017-02-16T01:44:32.995Z,74671
2017-02-16T01:44:43.590Z,74672
2017-02-16T01:44:54.155Z,74673
2017-02-16T01:45:04.736Z,74669
2017-02-16T01:45:14.948Z,74671
2017-02-16T01:45:25.141Z,74671
2017-02-16T01:45:35.750Z,74670
2017-02-16T01:45:46.289Z,74670
2017-02-16T01:45:56.875Z,74673
2017-02-16T01:46:07.479Z,74672
2017-02-16T01:46:18.101Z,74674
2017-02-16T01:46:28.672Z,74669
2017-02-16T01:46:39.296Z,74670
2017-02-16T01:46:49.908Z,74669
2017-02-16T01:47:00.474Z,74671
2017-02-16T01:47:10.325Z,74670
2017-02-16T01:47:20.564Z,74670
2017-02-16T01:47:31.149Z,74670
2017-02-16T01:47:41.737Z,74668
2017-02-16T01:47:51.961Z,74671
2017-02-16T01:48:02.518Z,74669
2017-02-16T01:48:12.713Z,74673
2017-02-16T01:48:22.944Z,74668
2017-02-16T01:48:33.527Z,74669
2017-02-16T01:48:44.079Z,74672
2017-02-16T01:48:54.671Z,74666
2017-02-16T01:49:04.900Z,74670
2017-02-16T01:49:15.505Z,74672
2017-02-16T01:49:26.082Z,74671
2017-02-16T01:49:36.732Z,74671
2017-02-16T01:49:46.939Z,74670
2017-02-16T01:49:57.548Z,74670
2017-02-16T01:50:08.131Z,74669
2017-02-16T01:50:18.682Z,74669
2017-02-16T01:50:29.288Z,74667
2017-02-16T01:50:39.835Z,74670
2017-02-16T01:50:50.503Z,74671
2017-02-16T01:51:00.722Z,74667
2017-02-16T01:51:11.325Z,74668
2017-02-16T01:51:21.513Z,74669
2017-02-16T01:51:32.115Z,74668
2017-02-16T01:51:42.681Z,74671
2017-02-16T01:51:53.259Z,74669
2017-02-16T01:52:03.468Z,74671
2017-02-16T01:52:14.035Z,74668
2017-02-16T01:52:24.656Z,74669
2017-02-16T01:52:34.496Z,74671
2017-02-16T01:52:45.062Z,74666
2017-02-16T01:52:55.657Z,74669
2017-02-16T01:53:05.865Z,74672
2017-02-16T01:53:16.466Z,74668
2017-02-16T01:53:27.057Z,74669
2017-02-16T01:53:37.618Z,74670
2017-02-16T01:53:48.195Z,74668
2017-02-16T01:53:58.385Z,74668
2017-02-16T01:54:08.565Z,74669
2017-02-16T01:54:18.747Z,74670
2017-02-16T01:54:29.311Z,74668
2017-02-16T01:54:39.888Z,74666
2017-02-16T01:54:50.108Z,74667
2017-02-16T01:55:00.693Z,74667
2017-02-16T01:55:10.903Z,74668
2017-02-16T01:55:21.459Z,74666
2017-02-16T01:55:32.069Z,74669
2017-02-16T01:55:42.640Z,74668
2017-02-16T01:55:53.203Z,74671
2017-02-16T01:56:03.380Z,74671
2017-02-16T01:56:13.605Z,74669
2017-02-16T01:56:23.840Z,74668
2017-02-16T01:56:34.411Z,74670
2017-02-16T01:56:44.974Z,74669
2017-02-16T01:56:55.566Z,74669
2017-02-16T01:57:05.840Z,74667
2017-02-16T01:57:16.433Z,74667
2017-02-16T01:57:26.990Z,74668
2017-02-16T01:57:37.217Z,74668
2017-02-16T01:57:47.812Z,74666
2017-02-16T01:57:58.385Z,74667
2017-02-16T01:58:08.610Z,74664
2017-02-16T01:58:19.187Z,74665
2017-02-16T01:58:29.765Z,74664
2017-02-16T01:58:40.340Z,74667
2017-02-16T01:58:50.920Z,74669
2017-02-16T01:59:01.532Z,74666
2017-02-16T01:59:12.143Z,74663
2017-02-16T01:59:22.734Z,74668
2017-02-16T01:59:33.320Z,74666
2017-02-16T01:59:43.881Z,74665
2017-02-16T01:59:54.467Z,74669
2017-02-16T02:00:05.057Z,74664
2017-02-16T02:00:14.897Z,74669
2017-02-16T02:00:25.464Z,74666
2017-02-16T02:00:36.052Z,74666
2017-02-16T02:00:46.654Z,74660
2017-02-16T02:00:57.255Z,74664
2017-02-16T02:01:07.835Z,74663
2017-02-16T02:01:18.436Z,74669
2017-02-16T02:01:28.644Z,74664
2017-02-16T02:01:39.270Z,74664
2017-02-16T02:01:49.826Z,74664
2017-02-16T02:02:00.437Z,74664
2017-02-16T02:02:10.684Z,74666
2017-02-16T02:02:21.305Z,74662
2017-02-16T02:02:31.918Z,74665
2017-02-16T02:02:42.482Z,74669
2017-02-16T02:02:53.041Z,74663
2017-02-16T02:03:02.896Z,74663
2017-02-16T02:03:12.694Z,74666
2017-02-16T02:03:23.291Z,74665
2017-02-16T02:03:33.562Z,74663
2017-02-16T02:03:44.196Z,74657
2017-02-16T02:03:54.771Z,74659
2017-02-16T02:04:05.358Z,74664
2017-02-16T02:04:15.930Z,74664
2017-02-16T02:04:26.138Z,74666
2017-02-16T02:04:36.700Z,74662
2017-02-16T02:04:46.932Z,74663
2017-02-16T02:04:57.524Z,74663
2017-02-16T02:05:08.102Z,74659
2017-02-16T02:05:18.266Z,74663
2017-02-16T02:05:28.822Z,74662
2017-02-16T02:05:39.451Z,74661
2017-02-16T02:05:49.632Z,74662
2017-02-16T02:06:00.198Z,74658
2017-02-16T02:06:10.400Z,74661
2017-02-16T02:06:20.985Z,74661
2017-02-16T02:06:31.562Z,74656
2017-02-16T02:06:42.142Z,74659
2017-02-16T02:06:52.698Z,74661
2017-02-16T02:07:03.268Z,74662
2017-02-16T02:07:13.813Z,74659
2017-02-16T02:07:24.412Z,74663
2017-02-16T02:07:34.984Z,74662
2017-02-16T02:07:45.574Z,74660
2017-02-16T02:07:56.184Z,74660
2017-02-16T02:08:06.375Z,74657
2017-02-16T02:08:16.238Z,74659
2017-02-16T02:08:26.876Z,74657
2017-02-16T02:08:37.490Z,74658
2017-02-16T02:08:48.084Z,74655
2017-02-16T02:08:58.691Z,74658
2017-02-16T02:09:09.254Z,74657
2017-02-16T02:09:19.884Z,74654
2017-02-16T02:09:30.470Z,74657
2017-02-16T02:09:41.028Z,74659
2017-02-16T02:09:51.588Z,74655
2017-02-16T02:10:02.147Z,74655
2017-02-16T02:10:12.341Z,74655
2017-02-16T02:10:22.179Z,74657
2017-02-16T02:10:32.357Z,74657
2017-02-16T02:10:42.927Z,74657
2017-02-16T02:10:53.550Z,74651
2017-02-16T02:11:04.152Z,74657
2017-02-16T02:11:14.723Z,74654
2017-02-16T02:11:25.299Z,74655
2017-02-16T02:11:35.892Z,74655
2017-02-16T02:11:46.496Z,74655
2017-02-16T02:11:57.060Z,74653
2017-02-16T02:12:07.655Z,74650
2017-02-16T02:12:17.881Z,74653
2017-02-16T02:12:28.144Z,74651
2017-02-16T02:12:38.727Z,74654
2017-02-16T02:12:49.303Z,74648
2017-02-16T02:12:59.903Z,74649
2017-02-16T02:13:10.104Z,74653
2017-02-16T02:13:20.702Z,74654
2017-02-16T02:13:31.266Z,74652
2017-02-16T02:13:41.885Z,74651
2017-02-16T02:13:52.452Z,74651
2017-02-16T02:14:03.027Z,74649
2017-02-16T02:14:13.646Z,74653
2017-02-16T02:14:23.855Z,74652
2017-02-16T02:14:34.467Z,74653
2017-02-16T02:14:45.056Z,74652
2017-02-16T02:14:55.629Z,74655